sensor_id;sensor_type;location;lat;lon;timestamp;pressure;altitude;pressure_sealevel;temperature;humidity
21290;BME280;10804;48.988;2.408;2023-04-29T00:00:25;100953.44;;;17.67;61.79
21290;BME280;10804;48.988;2.408;2023-04-29T00:02:52;100966.72;;;17.66;61.81
21290;BME280;10804;48.988;2.408;2023-04-29T00:05:21;100960.81;;;17.61;61.93
21290;BME280;10804;48.988;2.408;2023-04-29T00:07:48;100967.00;;;17.60;61.97
21290;BME280;10804;48.988;2.408;2023-04-29T00:10:15;100949.56;;;17.57;61.90
21290;BME280;10804;48.988;2.408;2023-04-29T00:12:43;100951.50;;;17.54;62.04
21290;BME280;10804;48.988;2.408;2023-04-29T00:15:10;100953.38;;;17.52;61.98
21290;BME280;10804;48.988;2.408;2023-04-29T00:17:38;100950.03;;;17.48;61.99
21290;BME280;10804;48.988;2.408;2023-04-29T00:20:07;100947.44;;;17.47;62.12
21290;BME280;10804;48.988;2.408;2023-04-29T00:22:36;100940.56;;;17.44;62.09
21290;BME280;10804;48.988;2.408;2023-04-29T00:25:04;100940.78;;;17.40;62.23
21290;BME280;10804;48.988;2.408;2023-04-29T00:27:32;100940.94;;;17.37;62.03
21290;BME280;10804;48.988;2.408;2023-04-29T00:30:02;100936.56;;;17.36;62.09
21290;BME280;10804;48.988;2.408;2023-04-29T00:32:30;100940.22;;;17.33;61.96
21290;BME280;10804;48.988;2.408;2023-04-29T00:34:57;100935.94;;;17.31;62.05
21290;BME280;10804;48.988;2.408;2023-04-29T00:37:24;100928.97;;;17.30;62.23
21290;BME280;10804;48.988;2.408;2023-04-29T00:40:12;100935.34;;;17.26;62.35
21290;BME280;10804;48.988;2.408;2023-04-29T00:42:40;100930.13;;;17.24;62.31
21290;BME280;10804;48.988;2.408;2023-04-29T00:45:09;100931.13;;;17.22;62.14
21290;BME280;10804;48.988;2.408;2023-04-29T00:47:37;100927.78;;;17.18;62.14
21290;BME280;10804;48.988;2.408;2023-04-29T00:50:06;100922.50;;;17.18;62.28
21290;BME280;10804;48.988;2.408;2023-04-29T00:52:34;100921.03;;;17.13;62.34
21290;BME280;10804;48.988;2.408;2023-04-29T00:55:04;100915.78;;;17.13;62.24
21290;BME280;10804;48.988;2.408;2023-04-29T00:57:33;100928.19;;;17.11;62.37
21290;BME280;10804;48.988;2.408;2023-04-29T01:00:01;100924.03;;;17.05;62.35
21290;BME280;10804;48.988;2.408;2023-04-29T01:02:29;100925.84;;;17.05;62.48
21290;BME280;10804;48.988;2.408;2023-04-29T01:04:57;100925.97;;;17.02;62.29
21290;BME280;10804;48.988;2.408;2023-04-29T01:07:29;100929.63;;;16.99;62.39
21290;BME280;10804;48.988;2.408;2023-04-29T01:10:03;100931.47;;;16.97;62.42
21290;BME280;10804;48.988;2.408;2023-04-29T01:12:40;100927.22;;;16.95;62.44
21290;BME280;10804;48.988;2.408;2023-04-29T01:15:16;100929.06;;;16.93;62.40
21290;BME280;10804;48.988;2.408;2023-04-29T01:17:58;100929.16;;;16.91;62.60
21290;BME280;10804;48.988;2.408;2023-04-29T01:20:27;100930.16;;;16.89;62.55
21290;BME280;10804;48.988;2.408;2023-04-29T01:22:54;100936.47;;;16.85;62.37
21290;BME280;10804;48.988;2.408;2023-04-29T01:25:23;100928.66;;;16.83;62.40
21290;BME280;10804;48.988;2.408;2023-04-29T01:28:11;100929.66;;;16.81;62.53
21290;BME280;10804;48.988;2.408;2023-04-29T01:30:46;100934.13;;;16.79;62.51
21290;BME280;10804;48.988;2.408;2023-04-29T01:33:22;100931.66;;;16.76;62.64
21290;BME280;10804;48.988;2.408;2023-04-29T01:36:04;100937.91;;;16.73;62.44
21290;BME280;10804;48.988;2.408;2023-04-29T01:38:37;100938.06;;;16.70;62.65
21290;BME280;10804;48.988;2.408;2023-04-29T01:41:13;100933.63;;;16.71;62.62
21290;BME280;10804;48.988;2.408;2023-04-29T01:43:46;100937.34;;;16.67;62.64
21290;BME280;10804;48.988;2.408;2023-04-29T01:46:20;100941.00;;;16.64;62.66
21290;BME280;10804;48.988;2.408;2023-04-29T01:48:51;100937.59;;;16.62;62.69
21290;BME280;10804;48.988;2.408;2023-04-29T01:51:19;100946.47;;;16.60;62.53
21290;BME280;10804;48.988;2.408;2023-04-29T01:53:47;100941.38;;;16.57;62.71
21290;BME280;10804;48.988;2.408;2023-04-29T01:56:16;100938.72;;;16.57;62.47
21290;BME280;10804;48.988;2.408;2023-04-29T01:58:49;100936.22;;;16.54;62.81
21290;BME280;10804;48.988;2.408;2023-04-29T02:01:35;100942.47;;;16.51;62.61
21290;BME280;10804;48.988;2.408;2023-04-29T02:04:04;100932.16;;;16.47;62.77
21290;BME280;10804;48.988;2.408;2023-04-29T02:06:31;100934.88;;;16.45;62.70
21290;BME280;10804;48.988;2.408;2023-04-29T02:09:02;100930.50;;;16.44;62.79
21290;BME280;10804;48.988;2.408;2023-04-29T02:11:32;100932.47;;;16.41;62.71
21290;BME280;10804;48.988;2.408;2023-04-29T02:14:00;100936.16;;;16.37;62.94
21290;BME280;10804;48.988;2.408;2023-04-29T02:16:28;100933.53;;;16.35;62.81
21290;BME280;10804;48.988;2.408;2023-04-29T02:18:58;100928.38;;;16.34;62.86
21290;BME280;10804;48.988;2.408;2023-04-29T02:21:26;100936.34;;;16.32;62.70
21290;BME280;10804;48.988;2.408;2023-04-29T02:23:53;100930.34;;;16.29;62.86
21290;BME280;10804;48.988;2.408;2023-04-29T02:26:22;100925.25;;;16.26;62.88
21290;BME280;10804;48.988;2.408;2023-04-29T02:28:51;100928.78;;;16.25;62.81
21290;BME280;10804;48.988;2.408;2023-04-29T02:31:20;100929.78;;;16.22;62.96
21290;BME280;10804;48.988;2.408;2023-04-29T02:33:48;100925.50;;;16.20;62.92
21290;BME280;10804;48.988;2.408;2023-04-29T02:36:15;100923.22;;;16.12;62.71
21290;BME280;10804;48.988;2.408;2023-04-29T02:38:43;100937.88;;;16.18;62.96
21290;BME280;10804;48.988;2.408;2023-04-29T02:41:15;100939.88;;;16.13;62.95
21290;BME280;10804;48.988;2.408;2023-04-29T02:43:42;100946.97;;;16.11;62.81
21290;BME280;10804;48.988;2.408;2023-04-29T02:46:11;100952.38;;;16.08;62.87
21290;BME280;10804;48.988;2.408;2023-04-29T02:48:57;100944.69;;;16.03;62.96
21290;BME280;10804;48.988;2.408;2023-04-29T02:51:43;100955.19;;;16.03;63.00
21290;BME280;10804;48.988;2.408;2023-04-29T02:54:29;100960.53;;;16.02;62.94
21290;BME280;10804;48.988;2.408;2023-04-29T02:56:56;100957.13;;;16.00;63.03
21290;BME280;10804;48.988;2.408;2023-04-29T02:59:24;100959.78;;;15.98;63.11
21290;BME280;10804;48.988;2.408;2023-04-29T03:01:53;100958.19;;;15.96;63.11
21290;BME280;10804;48.988;2.408;2023-04-29T03:04:20;100956.44;;;15.95;63.04
21290;BME280;10804;48.988;2.408;2023-04-29T03:06:48;100950.50;;;15.91;63.11
21290;BME280;10804;48.988;2.408;2023-04-29T03:09:15;100943.66;;;15.87;62.97
21290;BME280;10804;48.988;2.408;2023-04-29T03:11:45;100946.34;;;15.86;63.13
21290;BME280;10804;48.988;2.408;2023-04-29T03:14:12;100943.78;;;15.84;63.03
21290;BME280;10804;48.988;2.408;2023-04-29T03:16:40;100947.47;;;15.80;63.06
21290;BME280;10804;48.988;2.408;2023-04-29T03:19:09;100943.06;;;15.81;63.16
21290;BME280;10804;48.988;2.408;2023-04-29T03:21:37;100949.25;;;15.80;63.10
21290;BME280;10804;48.988;2.408;2023-04-29T03:24:05;100956.34;;;15.78;63.12
21290;BME280;10804;48.988;2.408;2023-04-29T03:26:33;100951.22;;;15.75;62.98
21290;BME280;10804;48.988;2.408;2023-04-29T03:29:03;100959.94;;;15.75;63.13
21290;BME280;10804;48.988;2.408;2023-04-29T03:31:30;100957.41;;;15.74;63.13
21290;BME280;10804;48.988;2.408;2023-04-29T03:33:59;100956.59;;;15.72;63.30
21290;BME280;10804;48.988;2.408;2023-04-29T03:36:27;100960.97;;;15.73;63.06
21290;BME280;10804;48.988;2.408;2023-04-29T03:39:07;100952.16;;;15.74;63.14
21290;BME280;10804;48.988;2.408;2023-04-29T03:41:35;100960.09;;;15.73;62.99
21290;BME280;10804;48.988;2.408;2023-04-29T03:44:03;100949.63;;;15.71;62.99
21290;BME280;10804;48.988;2.408;2023-04-29T03:46:30;100953.28;;;15.69;63.13
21290;BME280;10804;48.988;2.408;2023-04-29T03:48:58;100954.03;;;15.71;63.19
21290;BME280;10804;48.988;2.408;2023-04-29T03:51:27;100953.19;;;15.70;62.91
21290;BME280;10804;48.988;2.408;2023-04-29T03:54:04;100961.06;;;15.70;63.04
21290;BME280;10804;48.988;2.408;2023-04-29T03:56:32;100971.59;;;15.70;63.10
21290;BME280;10804;48.988;2.408;2023-04-29T03:58:59;100968.91;;;15.72;62.94
21290;BME280;10804;48.988;2.408;2023-04-29T04:01:26;100976.00;;;15.70;62.96
21290;BME280;10804;48.988;2.408;2023-04-29T04:03:54;100969.88;;;15.69;62.94
21290;BME280;10804;48.988;2.408;2023-04-29T04:06:21;100971.78;;;15.66;63.07
21290;BME280;10804;48.988;2.408;2023-04-29T04:08:52;100979.56;;;15.69;62.95
21290;BME280;10804;48.988;2.408;2023-04-29T04:11:26;100985.66;;;15.69;62.83
21290;BME280;10804;48.988;2.408;2023-04-29T04:13:57;100979.63;;;15.67;62.71
21290;BME280;10804;48.988;2.408;2023-04-29T04:16:24;100985.66;;;15.69;62.73
21290;BME280;10804;48.988;2.408;2023-04-29T04:18:51;100995.41;;;15.67;62.78
21290;BME280;10804;48.988;2.408;2023-04-29T04:21:19;100995.34;;;15.69;62.74
21290;BME280;10804;48.988;2.408;2023-04-29T04:23:56;100993.59;;;15.68;62.74
21290;BME280;10804;48.988;2.408;2023-04-29T04:26:24;101004.06;;;15.69;62.83
21290;BME280;10804;48.988;2.408;2023-04-29T04:28:57;101003.28;;;15.67;62.60
21290;BME280;10804;48.988;2.408;2023-04-29T04:31:31;100996.31;;;15.66;62.62
21290;BME280;10804;48.988;2.408;2023-04-29T04:33:59;101004.06;;;15.69;62.53
21290;BME280;10804;48.988;2.408;2023-04-29T04:36:29;101002.41;;;15.67;62.61
21290;BME280;10804;48.988;2.408;2023-04-29T04:38:59;101012.94;;;15.67;62.60
21290;BME280;10804;48.988;2.408;2023-04-29T04:41:26;101010.38;;;15.65;62.65
21290;BME280;10804;48.988;2.408;2023-04-29T04:43:57;101009.53;;;15.65;62.65
21290;BME280;10804;48.988;2.408;2023-04-29T04:46:50;101009.53;;;15.65;62.61
21290;BME280;10804;48.988;2.408;2023-04-29T04:49:32;101018.34;;;15.64;62.51
21290;BME280;10804;48.988;2.408;2023-04-29T04:52:00;101015.69;;;15.64;62.32
21290;BME280;10804;48.988;2.408;2023-04-29T04:54:31;101023.66;;;15.62;62.49
21290;BME280;10804;48.988;2.408;2023-04-29T04:57:08;101022.72;;;15.63;62.58
21290;BME280;10804;48.988;2.408;2023-04-29T04:59:37;101020.19;;;15.62;62.65
21290;BME280;10804;48.988;2.408;2023-04-29T05:02:05;101026.28;;;15.62;62.58
21290;BME280;10804;48.988;2.408;2023-04-29T05:04:33;101031.53;;;15.62;62.41
21290;BME280;10804;48.988;2.408;2023-04-29T05:07:01;101035.09;;;15.61;62.59
21290;BME280;10804;48.988;2.408;2023-04-29T05:09:36;101036.84;;;15.61;62.44
21290;BME280;10804;48.988;2.408;2023-04-29T05:12:03;101038.63;;;15.60;62.56
21290;BME280;10804;48.988;2.408;2023-04-29T05:14:32;101043.91;;;15.60;62.34
21290;BME280;10804;48.988;2.408;2023-04-29T05:16:59;101051.00;;;15.58;62.39
21290;BME280;10804;48.988;2.408;2023-04-29T05:19:27;101055.25;;;15.61;62.50
21290;BME280;10804;48.988;2.408;2023-04-29T05:21:54;101052.72;;;15.59;62.26
21290;BME280;10804;48.988;2.408;2023-04-29T05:24:22;101056.25;;;15.58;62.37
21290;BME280;10804;48.988;2.408;2023-04-29T05:26:51;101057.09;;;15.59;62.34
21290;BME280;10804;48.988;2.408;2023-04-29T05:29:20;101065.91;;;15.58;62.35
21290;BME280;10804;48.988;2.408;2023-04-29T05:31:54;101073.75;;;15.59;62.25
21290;BME280;10804;48.988;2.408;2023-04-29T05:34:21;101077.28;;;15.58;62.29
21290;BME280;10804;48.988;2.408;2023-04-29T05:36:48;101079.97;;;15.57;62.61
21290;BME280;10804;48.988;2.408;2023-04-29T05:39:16;101084.34;;;15.56;62.29
21290;BME280;10804;48.988;2.408;2023-04-29T05:41:47;101087.00;;;15.56;62.07
21290;BME280;10804;48.988;2.408;2023-04-29T05:44:20;101087.91;;;15.55;62.32
21290;BME280;10804;48.988;2.408;2023-04-29T05:46:47;101090.53;;;15.55;62.07
21290;BME280;10804;48.988;2.408;2023-04-29T05:49:17;101092.25;;;15.56;62.23
21290;BME280;10804;48.988;2.408;2023-04-29T05:51:45;101095.78;;;15.55;62.26
21290;BME280;10804;48.988;2.408;2023-04-29T05:54:13;101108.94;;;15.55;62.11
21290;BME280;10804;48.988;2.408;2023-04-29T05:56:41;101109.03;;;15.54;62.29
21290;BME280;10804;48.988;2.408;2023-04-29T05:59:08;101101.13;;;15.54;62.25
21290;BME280;10804;48.988;2.408;2023-04-29T06:01:37;101101.97;;;15.54;62.13
21290;BME280;10804;48.988;2.408;2023-04-29T06:04:05;101109.03;;;15.54;62.07
21290;BME280;10804;48.988;2.408;2023-04-29T06:06:39;101111.66;;;15.54;62.18
21290;BME280;10804;48.988;2.408;2023-04-29T06:09:07;101115.16;;;15.53;62.23
21290;BME280;10804;48.988;2.408;2023-04-29T06:11:34;101116.03;;;15.53;62.25
21290;BME280;10804;48.988;2.408;2023-04-29T06:14:02;101110.78;;;15.53;62.18
21290;BME280;10804;48.988;2.408;2023-04-29T06:16:29;101129.19;;;15.53;62.18
21290;BME280;10804;48.988;2.408;2023-04-29T06:18:58;101126.56;;;15.53;62.15
21290;BME280;10804;48.988;2.408;2023-04-29T06:21:27;101125.69;;;15.53;62.07
21290;BME280;10804;48.988;2.408;2023-04-29T06:23:54;101118.72;;;15.52;61.99
21290;BME280;10804;48.988;2.408;2023-04-29T06:26:23;101127.44;;;15.54;62.06
21290;BME280;10804;48.988;2.408;2023-04-29T06:28:50;101121.31;;;15.53;62.17
21290;BME280;10804;48.988;2.408;2023-04-29T06:31:19;101130.94;;;15.53;62.25
21290;BME280;10804;48.988;2.408;2023-04-29T06:33:47;101134.50;;;15.52;62.01
21290;BME280;10804;48.988;2.408;2023-04-29T06:36:16;101135.38;;;15.52;61.94
21290;BME280;10804;48.988;2.408;2023-04-29T06:38:44;101134.50;;;15.52;62.21
21290;BME280;10804;48.988;2.408;2023-04-29T06:41:25;101138.00;;;15.52;62.09
21290;BME280;10804;48.988;2.408;2023-04-29T06:44:13;101134.50;;;15.52;62.05
21290;BME280;10804;48.988;2.408;2023-04-29T06:47:00;101129.25;;;15.52;61.88
21290;BME280;10804;48.988;2.408;2023-04-29T06:49:51;101138.91;;;15.51;61.95
21290;BME280;10804;48.988;2.408;2023-04-29T06:52:22;101128.41;;;15.51;61.84
21290;BME280;10804;48.988;2.408;2023-04-29T06:54:49;101135.41;;;15.51;62.00
21290;BME280;10804;48.988;2.408;2023-04-29T06:57:18;101143.31;;;15.51;61.84
21290;BME280;10804;48.988;2.408;2023-04-29T06:59:45;101143.31;;;15.51;62.08
21290;BME280;10804;48.988;2.408;2023-04-29T07:02:13;101138.00;;;15.52;61.85
21290;BME280;10804;48.988;2.408;2023-04-29T07:04:41;101140.63;;;15.52;61.78
21290;BME280;10804;48.988;2.408;2023-04-29T07:07:08;101155.53;;;15.52;61.95
21290;BME280;10804;48.988;2.408;2023-04-29T07:09:37;101151.13;;;15.52;61.78
21290;BME280;10804;48.988;2.408;2023-04-29T07:12:04;101151.13;;;15.52;61.79
21290;BME280;10804;48.988;2.408;2023-04-29T07:14:32;101152.84;;;15.53;61.91
21290;BME280;10804;48.988;2.408;2023-04-29T07:16:59;101159.03;;;15.52;61.78
21290;BME280;10804;48.988;2.408;2023-04-29T07:19:26;101155.47;;;15.53;61.90
21290;BME280;10804;48.988;2.408;2023-04-29T07:21:53;101158.97;;;15.54;61.81
21290;BME280;10804;48.988;2.408;2023-04-29T07:24:21;101164.22;;;15.54;61.72
21290;BME280;10804;48.988;2.408;2023-04-29T07:26:50;101171.13;;;15.56;61.82
21290;BME280;10804;48.988;2.408;2023-04-29T07:29:18;101159.81;;;15.54;61.71
21290;BME280;10804;48.988;2.408;2023-04-29T07:31:45;101169.41;;;15.55;61.65
21290;BME280;10804;48.988;2.408;2023-04-29T07:34:13;101166.78;;;15.55;61.84
21290;BME280;10804;48.988;2.408;2023-04-29T07:36:40;101170.28;;;15.56;61.74
21290;BME280;10804;48.988;2.408;2023-04-29T07:39:08;101175.50;;;15.57;61.72
21290;BME280;10804;48.988;2.408;2023-04-29T07:41:37;101177.25;;;15.57;61.48
21290;BME280;10804;48.988;2.408;2023-04-29T07:44:06;101178.13;;;15.57;61.65
21290;BME280;10804;48.988;2.408;2023-04-29T07:46:33;101174.56;;;15.58;61.63
21290;BME280;10804;48.988;2.408;2023-04-29T07:49:00;101182.47;;;15.58;61.69
21290;BME280;10804;48.988;2.408;2023-04-29T07:51:28;101179.75;;;15.60;61.49
21290;BME280;10804;48.988;2.408;2023-04-29T07:53:55;101177.13;;;15.60;61.58
21290;BME280;10804;48.988;2.408;2023-04-29T07:56:22;101180.63;;;15.60;61.44
21290;BME280;10804;48.988;2.408;2023-04-29T07:58:50;101183.13;;;15.63;61.57
21290;BME280;10804;48.988;2.408;2023-04-29T08:01:18;101179.66;;;15.63;61.48
21290;BME280;10804;48.988;2.408;2023-04-29T08:03:46;101182.19;;;15.64;61.50
21290;BME280;10804;48.988;2.408;2023-04-29T08:06:15;101178.69;;;15.65;61.46
21290;BME280;10804;48.988;2.408;2023-04-29T08:08:46;101178.59;;;15.67;61.36
21290;BME280;10804;48.988;2.408;2023-04-29T08:11:17;101182.09;;;15.67;61.22
21290;BME280;10804;48.988;2.408;2023-04-29T08:13:44;101178.53;;;15.68;61.38
21290;BME280;10804;48.988;2.408;2023-04-29T08:16:12;101180.25;;;15.69;61.35
21290;BME280;10804;48.988;2.408;2023-04-29T08:18:40;101178.41;;;15.71;61.36
21290;BME280;10804;48.988;2.408;2023-04-29T08:21:09;101188.94;;;15.71;61.35
21290;BME280;10804;48.988;2.408;2023-04-29T08:23:37;101177.56;;;15.71;61.21
21290;BME280;10804;48.988;2.408;2023-04-29T08:26:04;101180.13;;;15.72;61.36
21290;BME280;10804;48.988;2.408;2023-04-29T08:28:31;101187.13;;;15.73;61.18
21290;BME280;10804;48.988;2.408;2023-04-29T08:30:59;101183.56;;;15.74;61.27
21290;BME280;10804;48.988;2.408;2023-04-29T08:33:26;101183.47;;;15.75;61.19
21290;BME280;10804;48.988;2.408;2023-04-29T08:35:58;101181.72;;;15.76;61.32
21290;BME280;10804;48.988;2.408;2023-04-29T08:38:28;101184.34;;;15.76;61.21
21290;BME280;10804;48.988;2.408;2023-04-29T08:40:55;101193.94;;;15.77;61.05
21290;BME280;10804;48.988;2.408;2023-04-29T08:43:23;101190.41;;;15.78;61.06
21290;BME280;10804;48.988;2.408;2023-04-29T08:45:51;101200.00;;;15.79;61.15
21290;BME280;10804;48.988;2.408;2023-04-29T08:48:19;101199.13;;;15.80;61.01
21290;BME280;10804;48.988;2.408;2023-04-29T08:50:46;101193.84;;;15.80;61.13
21290;BME280;10804;48.988;2.408;2023-04-29T08:53:15;101192.94;;;15.81;61.06
21290;BME280;10804;48.988;2.408;2023-04-29T08:55:43;101194.56;;;15.83;61.08
21290;BME280;10804;48.988;2.408;2023-04-29T08:58:12;101200.63;;;15.85;60.90
21290;BME280;10804;48.988;2.408;2023-04-29T09:00:41;101198.00;;;15.85;60.97
21290;BME280;10804;48.988;2.408;2023-04-29T09:03:14;101197.09;;;15.86;60.85
21290;BME280;10804;48.988;2.408;2023-04-29T09:05:44;101201.38;;;15.89;60.90
21290;BME280;10804;48.988;2.408;2023-04-29T09:08:16;101203.09;;;15.90;60.80
21290;BME280;10804;48.988;2.408;2023-04-29T09:10:44;101204.78;;;15.91;60.87
21290;BME280;10804;48.988;2.408;2023-04-29T09:13:22;101209.06;;;15.93;60.84
21290;BME280;10804;48.988;2.408;2023-04-29T09:15:50;101206.44;;;15.93;60.86
21290;BME280;10804;48.988;2.408;2023-04-29T09:18:41;101209.81;;;15.97;60.59
21290;BME280;10804;48.988;2.408;2023-04-29T09:21:13;101210.66;;;15.97;60.64
21290;BME280;10804;48.988;2.408;2023-04-29T09:23:42;101221.91;;;16.01;60.68
21290;BME280;10804;48.988;2.408;2023-04-29T09:26:10;101215.72;;;16.02;60.63
21290;BME280;10804;48.988;2.408;2023-04-29T09:28:37;101220.09;;;16.03;60.69
21290;BME280;10804;48.988;2.408;2023-04-29T09:31:08;101220.00;;;16.04;60.73
21290;BME280;10804;48.988;2.408;2023-04-29T09:33:48;101214.75;;;16.04;60.67
21290;BME280;10804;48.988;2.408;2023-04-29T09:36:34;101218.13;;;16.08;60.63
21290;BME280;10804;48.988;2.408;2023-04-29T09:39:03;101213.66;;;16.10;60.52
21290;BME280;10804;48.988;2.408;2023-04-29T09:41:40;101218.81;;;16.13;60.85
21290;BME280;10804;48.988;2.408;2023-04-29T09:44:09;101219.97;;;16.06;60.91
21290;BME280;10804;48.988;2.408;2023-04-29T09:46:36;101216.56;;;16.04;60.98
21290;BME280;10804;48.988;2.408;2023-04-29T09:49:21;101227.63;;;16.12;60.84
21290;BME280;10804;48.988;2.408;2023-04-29T09:51:54;101230.06;;;16.16;60.70
21290;BME280;10804;48.988;2.408;2023-04-29T09:54:24;101228.16;;;16.20;60.53
21290;BME280;10804;48.988;2.408;2023-04-29T09:56:55;101225.41;;;16.23;60.45
21290;BME280;10804;48.988;2.408;2023-04-29T09:59:23;101229.69;;;16.25;60.46
21290;BME280;10804;48.988;2.408;2023-04-29T10:01:51;101228.72;;;16.28;60.20
21290;BME280;10804;48.988;2.408;2023-04-29T10:04:21;101238.31;;;16.29;60.20
21290;BME280;10804;48.988;2.408;2023-04-29T10:06:49;101235.53;;;16.32;60.11
21290;BME280;10804;48.988;2.408;2023-04-29T10:09:18;101234.63;;;16.33;60.22
21290;BME280;10804;48.988;2.408;2023-04-29T10:11:48;101233.72;;;16.34;60.11
21290;BME280;10804;48.988;2.408;2023-04-29T10:14:17;101232.72;;;16.36;60.09
21290;BME280;10804;48.988;2.408;2023-04-29T10:16:46;101227.47;;;16.36;59.92
21290;BME280;10804;48.988;2.408;2023-04-29T10:19:18;101230.78;;;16.41;60.11
21290;BME280;10804;48.988;2.408;2023-04-29T10:21:48;101228.13;;;16.43;59.98
21290;BME280;10804;48.988;2.408;2023-04-29T10:24:16;101234.16;;;16.45;59.98
21290;BME280;10804;48.988;2.408;2023-04-29T10:26:47;101230.56;;;16.47;60.01
21290;BME280;10804;48.988;2.408;2023-04-29T10:29:16;101231.34;;;16.49;59.79
21290;BME280;10804;48.988;2.408;2023-04-29T10:31:45;101231.28;;;16.51;59.84
21290;BME280;10804;48.988;2.408;2023-04-29T10:34:16;101232.94;;;16.53;59.80
21290;BME280;10804;48.988;2.408;2023-04-29T10:36:44;101224.03;;;16.56;59.72
21290;BME280;10804;48.988;2.408;2023-04-29T10:39:21;101226.59;;;16.57;59.86
21290;BME280;10804;48.988;2.408;2023-04-29T10:41:52;101228.25;;;16.60;59.64
21290;BME280;10804;48.988;2.408;2023-04-29T10:44:20;101243.13;;;16.61;59.58
21290;BME280;10804;48.988;2.408;2023-04-29T10:47:18;101245.66;;;16.64;59.76
21290;BME280;10804;48.988;2.408;2023-04-29T10:50:01;101232.59;;;16.61;59.90
21290;BME280;10804;48.988;2.408;2023-04-29T10:52:29;101239.47;;;16.65;59.85
21290;BME280;10804;48.988;2.408;2023-04-29T10:55:03;101243.19;;;16.59;59.81
21290;BME280;10804;48.988;2.408;2023-04-29T10:57:31;101236.94;;;16.62;59.54
21290;BME280;10804;48.988;2.408;2023-04-29T10:59:59;101248.41;;;16.61;59.51
21290;BME280;10804;48.988;2.408;2023-04-29T11:02:26;101241.44;;;16.60;59.60
21290;BME280;10804;48.988;2.408;2023-04-29T11:05:06;101242.16;;;16.63;59.70
21290;BME280;10804;48.988;2.408;2023-04-29T11:07:34;101250.91;;;16.64;59.50
21290;BME280;10804;48.988;2.408;2023-04-29T11:10:03;101234.31;;;16.62;59.60
21290;BME280;10804;48.988;2.408;2023-04-29T11:12:32;101249.91;;;16.66;59.57
21290;BME280;10804;48.988;2.408;2023-04-29T11:15:00;101246.19;;;16.72;59.31
21290;BME280;10804;48.988;2.408;2023-04-29T11:17:34;101239.84;;;16.76;59.32
21290;BME280;10804;48.988;2.408;2023-04-29T11:20:02;101246.72;;;16.80;59.21
21290;BME280;10804;48.988;2.408;2023-04-29T11:22:30;101250.06;;;16.83;59.17
21290;BME280;10804;48.988;2.408;2023-04-29T11:24:59;101244.66;;;16.86;59.15
21290;BME280;10804;48.988;2.408;2023-04-29T11:27:30;101242.81;;;16.88;59.08
21290;BME280;10804;48.988;2.408;2023-04-29T11:30:00;101242.75;;;16.90;59.06
21290;BME280;10804;48.988;2.408;2023-04-29T11:32:31;101236.41;;;16.94;59.04
21290;BME280;10804;48.988;2.408;2023-04-29T11:35:16;101248.59;;;16.96;59.10
21290;BME280;10804;48.988;2.408;2023-04-29T11:37:45;101253.75;;;16.99;59.02
21290;BME280;10804;48.988;2.408;2023-04-29T11:40:13;101250.97;;;17.02;59.00
21290;BME280;10804;48.988;2.408;2023-04-29T11:42:44;101251.84;;;17.03;58.89
21290;BME280;10804;48.988;2.408;2023-04-29T11:45:16;101253.41;;;17.07;58.93
21290;BME280;10804;48.988;2.408;2023-04-29T11:47:44;101258.56;;;17.10;58.89
21290;BME280;10804;48.988;2.408;2023-04-29T11:50:13;101255.00;;;17.11;58.80
21290;BME280;10804;48.988;2.408;2023-04-29T11:52:50;101255.78;;;17.13;58.88
21290;BME280;10804;48.988;2.408;2023-04-29T11:55:18;101261.84;;;17.15;58.81
21290;BME280;10804;48.988;2.408;2023-04-29T11:57:48;101266.13;;;17.17;58.84
21290;BME280;10804;48.988;2.408;2023-04-29T12:00:17;101255.53;;;17.19;58.80
21290;BME280;10804;48.988;2.408;2023-04-29T12:02:45;101262.50;;;17.20;58.79
21290;BME280;10804;48.988;2.408;2023-04-29T12:05:13;101256.34;;;17.19;58.68
21290;BME280;10804;48.988;2.408;2023-04-29T12:07:42;101261.56;;;17.21;58.78
21290;BME280;10804;48.988;2.408;2023-04-29T12:10:10;101265.91;;;17.22;58.74
21290;BME280;10804;48.988;2.408;2023-04-29T12:12:38;101260.59;;;17.23;58.79
21290;BME280;10804;48.988;2.408;2023-04-29T12:15:09;101266.69;;;17.24;58.72
21290;BME280;10804;48.988;2.408;2023-04-29T12:17:39;101264.88;;;17.26;58.70
21290;BME280;10804;48.988;2.408;2023-04-29T12:20:07;101266.56;;;17.27;58.81
21290;BME280;10804;48.988;2.408;2023-04-29T12:22:35;101263.00;;;17.28;58.70
21290;BME280;10804;48.988;2.408;2023-04-29T12:25:03;101270.00;;;17.29;58.81
21290;BME280;10804;48.988;2.408;2023-04-29T12:27:31;101264.72;;;17.29;58.79
21290;BME280;10804;48.988;2.408;2023-04-29T12:29:58;101273.41;;;17.31;58.71
21290;BME280;10804;48.988;2.408;2023-04-29T12:32:26;101260.22;;;17.31;58.68
21290;BME280;10804;48.988;2.408;2023-04-29T12:34:54;101262.81;;;17.32;58.77
21290;BME280;10804;48.988;2.408;2023-04-29T12:37:22;101263.59;;;17.34;58.72
21290;BME280;10804;48.988;2.408;2023-04-29T12:39:49;101266.22;;;17.34;58.69
21290;BME280;10804;48.988;2.408;2023-04-29T12:42:17;101267.94;;;17.35;58.72
21290;BME280;10804;48.988;2.408;2023-04-29T12:44:45;101270.53;;;17.37;58.66
21290;BME280;10804;48.988;2.408;2023-04-29T12:47:13;101266.84;;;17.41;58.70
21290;BME280;10804;48.988;2.408;2023-04-29T12:49:42;101267.75;;;17.40;58.74
21290;BME280;10804;48.988;2.408;2023-04-29T12:52:11;101270.34;;;17.41;58.76
21290;BME280;10804;48.988;2.408;2023-04-29T12:54:39;101273.69;;;17.45;58.86
21290;BME280;10804;48.988;2.408;2023-04-29T12:57:08;101261.44;;;17.44;58.66
21290;BME280;10804;48.988;2.408;2023-04-29T12:59:36;101263.84;;;17.48;58.51
21290;BME280;10804;48.988;2.408;2023-04-29T13:02:03;101268.16;;;17.51;58.65
21290;BME280;10804;48.988;2.408;2023-04-29T13:04:30;101274.19;;;17.53;58.63